Time,TemperatureF,DewpointF,PressureIn,WindDirection,WindDirectionDegrees,WindSpeedMPH,WindSpeedGustMPH,Humidity,HourlyPrecipIn,Conditions,Clouds,dailyrainin,SoftwareType,DateUTC
2013-05-02 00:01:00,54.7,42.8,30.18,NNE,23,4.9,11.4,64,0.00,,,0.00,WUHU216HW,2013-05-02 05:01:00,
2013-05-02 00:06:00,54.5,43.0,30.18,North,0,3.1,7.8,65,0.00,,,0.00,WUHU216HW,2013-05-02 05:06:00,
2013-05-02 00:11:00,54.4,43.2,30.19,NE,45,2.5,6.7,66,0.00,,,0.00,WUHU216HW,2013-05-02 05:11:00,
2013-05-02 00:16:00,54.2,42.7,30.19,NE,45,6.3,7.8,65,0.00,,,0.00,WUHU216HW,2013-05-02 05:16:00,
2013-05-02 00:21:00,54.0,42.5,30.19,WNW,293,2.5,7.8,65,0.00,,,0.00,WUHU216HW,2013-05-02 05:21:00,
2013-05-02 00:26:00,53.8,42.3,30.19,NE,45,4.7,6.3,65,0.00,,,0.00,WUHU216HW,2013-05-02 05:26:00,
2013-05-02 00:31:00,53.6,42.1,30.19,East,90,4.9,5.6,65,0.00,,,0.00,WUHU216HW,2013-05-02 05:31:00,
2013-05-02 00:36:00,53.5,41.9,30.19,NE,45,1.8,6.5,65,0.00,,,0.00,WUHU216HW,2013-05-02 05:36:00,
2013-05-02 00:41:00,53.3,42.2,30.19,WNW,293,4.3,6.5,66,0.00,,,0.00,WUHU216HW,2013-05-02 05:41:00,
2013-05-02 00:46:00,53.1,42.0,30.19,NNE,23,3.1,5.8,66,0.00,,,0.00,WUHU216HW,2013-05-02 05:46:00,
2013-05-02 00:51:00,52.9,41.9,30.18,North,0,2.0,5.8,66,0.00,,,0.00,WUHU216HW,2013-05-02 05:51:00,
2013-05-02 00:56:00,52.7,42.1,30.18,North,0,2.5,4.0,67,0.00,,,0.00,WUHU216HW,2013-05-02 05:56:00,
2013-05-02 01:01:00,52.6,42.0,30.19,NW,315,0.7,4.0,67,0.00,,,0.00,WUHU216HW,2013-05-02 06:01:00,
2013-05-02 01:06:00,52.2,41.9,30.19,NNW,338,1.8,4.0,68,0.00,,,0.00,WUHU216HW,2013-05-02 06:06:00,
2013-05-02 01:11:00,52.2,42.4,30.19,North,0,1.1,4.0,69,0.00,,,0.00,WUHU216HW,2013-05-02 06:11:00,
2013-05-02 01:16:00,52.2,42.4,30.18,NNW,338,2.7,3.6,69,0.00,,,0.00,WUHU216HW,2013-05-02 06:16:00,
2013-05-02 01:21:00,51.8,41.7,30.18,NNE,23,0.9,3.6,68,0.00,,,0.00,WUHU216HW,2013-05-02 06:21:00,
2013-05-02 01:26:00,51.8,42.0,30.18,North,0,2.9,2.9,69,0.00,,,0.00,WUHU216HW,2013-05-02 06:26:00,
2013-05-02 01:31:00,51.7,41.5,30.18,West,270,2.0,3.6,68,0.00,,,0.00,WUHU216HW,2013-05-02 06:31:00,
2013-05-02 01:36:00,51.5,41.7,30.19,NNE,23,1.1,3.6,69,0.00,,,0.00,WUHU216HW,2013-05-02 06:36:00,
2013-05-02 01:41:00,51.5,41.7,30.19,NE,45,1.1,3.4,69,0.00,,,0.00,WUHU216HW,2013-05-02 06:41:00,
2013-05-02 01:46:00,51.5,42.1,30.19,North,0,2.7,4.0,70,0.00,,,0.00,WUHU216HW,2013-05-02 06:46:00,
2013-05-02 01:51:00,51.5,42.1,30.19,NE,45,4.0,4.5,70,0.00,,,0.00,WUHU216HW,2013-05-02 06:51:00,
2013-05-02 01:56:00,51.5,41.7,30.19,North,0,4.7,9.2,69,0.00,,,0.00,WUHU216HW,2013-05-02 06:56:00,
2013-05-02 02:01:00,51.3,41.1,30.19,North,0,2.9,9.2,68,0.00,,,0.00,WUHU216HW,2013-05-02 07:01:00,
2013-05-02 02:06:00,50.8,40.2,30.20,North,0,6.7,8.7,67,0.00,,,0.00,WUHU216HW,2013-05-02 07:06:00,
2013-05-02 02:11:00,50.6,40.1,30.20,NNW,338,3.6,6.7,67,0.00,,,0.00,WUHU216HW,2013-05-02 07:11:00,
2013-05-02 02:16:00,50.2,39.2,30.19,NW,315,5.1,6.7,66,0.00,,,0.00,WUHU216HW,2013-05-02 07:16:00,
2013-05-02 02:21:00,50.0,39.1,30.19,North,0,4.0,5.4,66,0.00,,,0.00,WUHU216HW,2013-05-02 07:21:00,
2013-05-02 02:26:00,49.5,38.2,30.18,ENE,68,3.4,6.3,65,0.00,,,0.00,WUHU216HW,2013-05-02 07:26:00,
2013-05-02 02:31:00,49.1,38.3,30.18,NNW,338,3.8,6.3,66,0.00,,,0.00,WUHU216HW,2013-05-02 07:31:00,
2013-05-02 02:36:00,48.8,37.9,30.18,North,0,3.1,7.6,66,0.00,,,0.00,WUHU216HW,2013-05-02 07:36:00,
2013-05-02 02:41:00,48.4,37.5,30.18,SE,135,4.0,9.2,66,0.00,,,0.00,WUHU216HW,2013-05-02 07:41:00,
2013-05-02 02:46:00,48.2,37.7,30.19,SSE,158,3.1,9.2,67,0.00,,,0.00,WUHU216HW,2013-05-02 07:46:00,
2013-05-02 02:51:00,48.1,37.6,30.19,SSW,203,3.1,6.9,67,0.00,,,0.00,WUHU216HW,2013-05-02 07:51:00,
2013-05-02 02:56:00,47.9,37.5,30.20,North,0,2.7,6.9,67,0.00,,,0.00,WUHU216HW,2013-05-02 07:56:00,
2013-05-02 03:01:00,47.7,37.3,30.20,North,0,7.6,7.6,67,0.00,,,0.00,WUHU216HW,2013-05-02 08:01:00,
2013-05-02 03:06:00,47.5,37.1,30.19,ENE,68,2.5,9.8,67,0.00,,,0.00,WUHU216HW,2013-05-02 08:06:00,
2013-05-02 03:11:00,47.3,36.9,30.19,NNW,338,6.3,9.8,67,0.00,,,0.00,WUHU216HW,2013-05-02 08:11:00,
2013-05-02 03:16:00,47.2,37.2,30.19,ENE,68,5.1,6.3,68,0.00,,,0.00,WUHU216HW,2013-05-02 08:16:00,
2013-05-02 03:21:00,47.2,37.2,30.19,NNE,23,3.6,5.1,68,0.00,,,0.00,WUHU216HW,2013-05-02 08:21:00,
2013-05-02 03:26:00,47.0,37.0,30.19,East,90,1.8,5.4,68,0.00,,,0.00,WUHU216HW,2013-05-02 08:26:00,
2013-05-02 03:31:00,46.8,37.2,30.19,North,0,4.3,6.9,69,0.00,,,0.00,WUHU216HW,2013-05-02 08:31:00,
2013-05-02 03:36:00,46.8,37.2,30.19,NE,45,2.7,6.9,69,0.00,,,0.00,WUHU216HW,2013-05-02 08:36:00,
2013-05-02 03:41:00,46.6,37.5,30.19,WNW,293,2.5,6.3,70,0.00,,,0.00,WUHU216HW,2013-05-02 08:41:00,
2013-05-02 03:46:00,46.4,37.3,30.19,North,0,3.4,5.4,70,0.00,,,0.00,WUHU216HW,2013-05-02 08:46:00,
2013-05-02 03:51:00,46.4,37.6,30.19,North,0,3.4,6.7,71,0.00,,,0.00,WUHU216HW,2013-05-02 08:51:00,
2013-05-02 03:56:00,46.4,38.0,30.19,NNE,23,2.0,6.7,72,0.00,,,0.00,WUHU216HW,2013-05-02 08:56:00,
2013-05-02 04:01:00,46.3,38.1,30.20,SW,225,1.8,6.9,73,0.00,,,0.00,WUHU216HW,2013-05-02 09:01:00,
2013-05-02 04:06:00,46.1,38.3,30.20,SSE,158,2.2,7.6,74,0.00,,,0.00,WUHU216HW,2013-05-02 09:06:00,
2013-05-02 04:11:00,45.9,38.4,30.20,West,270,2.5,7.6,75,0.00,,,0.00,WUHU216HW,2013-05-02 09:11:00,
2013-05-02 04:16:00,45.7,37.9,30.20,North,0,4.0,7.4,74,0.00,,,0.00,WUHU216HW,2013-05-02 09:16:00,
2013-05-02 04:21:00,45.7,38.3,30.21,SE,135,2.2,7.6,75,0.00,,,0.00,WUHU216HW,2013-05-02 09:21:00,
2013-05-02 04:26:00,45.7,38.3,30.21,NE,45,3.4,7.6,75,0.00,,,0.00,WUHU216HW,2013-05-02 09:26:00,
2013-05-02 04:31:00,45.4,37.5,30.20,NNW,338,6.3,8.5,74,0.00,,,0.00,WUHU216HW,2013-05-02 09:31:00,
2013-05-02 04:36:00,45.0,37.2,30.20,NNW,338,9.2,11.4,74,0.00,,,0.00,WUHU216HW,2013-05-02 09:36:00,
2013-05-02 04:41:00,44.8,37.0,30.21,NNW,338,5.1,11.4,74,0.00,,,0.00,WUHU216HW,2013-05-02 09:41:00,
2013-05-02 04:46:00,44.5,36.6,30.21,North,0,8.1,11.9,74,0.00,,,0.00,WUHU216HW,2013-05-02 09:46:00,
2013-05-02 04:51:00,44.3,36.5,30.21,North,0,6.9,11.9,74,0.00,,,0.00,WUHU216HW,2013-05-02 09:51:00,
2013-05-02 04:56:00,43.9,35.8,30.22,NNE,23,8.5,13.4,73,0.00,,,0.00,WUHU216HW,2013-05-02 09:56:00,
2013-05-02 05:01:00,43.6,35.2,30.21,North,0,5.1,13.4,72,0.00,,,0.00,WUHU216HW,2013-05-02 10:01:00,
2013-05-02 05:06:00,43.6,35.2,30.21,ESE,113,3.8,10.5,72,0.00,,,0.00,WUHU216HW,2013-05-02 10:06:00,
2013-05-02 05:11:00,43.4,35.0,30.21,NE,45,1.1,10.5,72,0.00,,,0.00,WUHU216HW,2013-05-02 10:11:00,
2013-05-02 05:16:00,43.2,34.8,30.22,ENE,68,2.7,9.8,72,0.00,,,0.00,WUHU216HW,2013-05-02 10:16:00,
2013-05-02 05:21:00,42.8,34.8,30.21,NNE,23,4.5,10.7,73,0.00,,,0.00,WUHU216HW,2013-05-02 10:21:00,
2013-05-02 05:26:00,42.8,34.8,30.20,NE,45,2.2,10.7,73,0.00,,,0.00,WUHU216HW,2013-05-02 10:26:00,
2013-05-02 05:31:00,42.7,34.9,30.21,NNW,338,1.1,6.0,74,0.00,,,0.00,WUHU216HW,2013-05-02 10:31:00,
2013-05-02 05:36:00,42.5,34.7,30.21,NNW,338,5.4,7.4,74,0.00,,,0.00,WUHU216HW,2013-05-02 10:36:00,
2013-05-02 05:41:00,42.3,34.6,30.22,North,0,6.3,8.3,74,0.00,,,0.00,WUHU216HW,2013-05-02 10:41:00,
2013-05-02 05:46:00,42.1,34.4,30.22,NNE,23,6.0,8.7,74,0.00,,,0.00,WUHU216HW,2013-05-02 10:46:00,
2013-05-02 05:51:00,41.9,34.2,30.22,NNE,23,3.8,9.2,74,0.00,,,0.00,WUHU216HW,2013-05-02 10:51:00,
2013-05-02 05:55:00,41.9,34.2,30.21,NNW,338,5.4,11.4,74,0.00,,,0.00,WUHU216HW,2013-05-02 10:55:00,
2013-05-02 06:00:00,41.8,33.8,30.22,NNE,23,5.8,11.4,73,0.00,,,0.00,WUHU216HW,2013-05-02 11:00:00,
2013-05-02 06:05:00,41.6,33.6,30.22,NNE,23,9.8,11.4,73,0.00,,,0.00,WUHU216HW,2013-05-02 11:05:00,
2013-05-02 06:10:00,41.4,33.4,30.22,NE,45,7.2,11.4,73,0.00,,,0.00,WUHU216HW,2013-05-02 11:10:00,
2013-05-02 06:15:00,41.4,33.7,30.22,WSW,248,1.8,9.8,74,0.00,,,0.00,WUHU216HW,2013-05-02 11:15:00,
2013-05-02 06:20:00,41.4,33.4,30.22,ESE,113,4.9,7.6,73,0.00,,,0.00,WUHU216HW,2013-05-02 11:20:00,
2013-05-02 06:25:00,41.4,33.7,30.23,North,0,3.6,9.2,74,0.00,,,0.00,WUHU216HW,2013-05-02 11:25:00,
2013-05-02 06:30:00,41.4,33.4,30.22,NNW,338,3.6,9.2,73,0.00,,,0.00,WUHU216HW,2013-05-02 11:30:00,
2013-05-02 06:35:00,41.6,33.6,30.22,NW,315,1.8,9.2,73,0.00,,,0.00,WUHU216HW,2013-05-02 11:35:00,
2013-05-02 06:40:00,41.8,33.8,30.22,NNW,338,8.5,8.5,73,0.00,,,0.00,WUHU216HW,2013-05-02 11:40:00,
2013-05-02 06:45:00,41.9,33.9,30.22,North,0,8.5,8.5,73,0.00,,,0.00,WUHU216HW,2013-05-02 11:45:00,
2013-05-02 06:50:00,41.8,33.4,30.22,North,0,8.9,13.0,72,0.00,,,0.00,WUHU216HW,2013-05-02 11:50:00,
2013-05-02 06:55:00,41.8,33.4,30.22,NNW,338,8.1,13.0,72,0.00,,,0.00,WUHU216HW,2013-05-02 11:55:00,
2013-05-02 07:00:00,41.9,33.6,30.23,NW,315,3.4,9.8,72,0.00,,,0.00,WUHU216HW,2013-05-02 12:00:00,
2013-05-02 07:05:00,42.1,33.8,30.22,SE,135,1.8,9.8,72,0.00,,,0.00,WUHU216HW,2013-05-02 12:05:00,
2013-05-02 07:10:00,42.3,33.7,30.22,NE,45,4.0,9.8,71,0.00,,,0.00,WUHU216HW,2013-05-02 12:10:00,
2013-05-02 07:15:00,42.3,33.9,30.23,North,0,1.3,10.3,72,0.00,,,0.00,WUHU216HW,2013-05-02 12:15:00,
2013-05-02 07:20:00,42.8,34.2,30.23,East,90,2.5,10.3,71,0.00,,,0.00,WUHU216HW,2013-05-02 12:20:00,
2013-05-02 07:25:00,42.8,34.2,30.23,North,0,9.2,12.1,71,0.00,,,0.00,WUHU216HW,2013-05-02 12:25:00,
2013-05-02 07:30:00,42.8,34.2,30.23,NNE,23,5.1,12.1,71,0.00,,,0.00,WUHU216HW,2013-05-02 12:30:00,
2013-05-02 07:35:00,42.8,34.2,30.23,ENE,68,9.2,9.8,71,0.00,,,0.00,WUHU216HW,2013-05-02 12:35:00,
2013-05-02 07:40:00,42.8,34.2,30.24,North,0,5.8,10.7,71,0.00,,,0.00,WUHU216HW,2013-05-02 12:40:00,
2013-05-02 07:45:00,43.0,34.3,30.24,ENE,68,4.0,11.2,71,0.00,,,0.00,WUHU216HW,2013-05-02 12:45:00,
2013-05-02 07:50:00,43.6,34.5,30.23,WSW,248,3.1,11.2,70,0.00,,,0.00,WUHU216HW,2013-05-02 12:50:00,
2013-05-02 07:55:00,43.6,34.8,30.24,NNW,338,6.5,10.1,71,0.00,,,0.00,WUHU216HW,2013-05-02 12:55:00,
2013-05-02 08:00:00,44.1,35.3,30.24,NE,45,6.3,10.1,71,0.00,,,0.00,WUHU216HW,2013-05-02 13:00:00,
2013-05-02 08:05:00,44.3,35.1,30.23,ENE,68,4.5,11.4,70,0.00,,,0.00,WUHU216HW,2013-05-02 13:05:00,
2013-05-02 08:10:00,44.3,35.1,30.23,North,0,10.3,12.1,70,0.00,,,0.00,WUHU216HW,2013-05-02 13:10:00,
2013-05-02 08:15:00,44.1,35.3,30.23,North,0,6.0,12.1,71,0.00,,,0.00,WUHU216HW,2013-05-02 13:15:00,
2013-05-02 08:20:00,43.9,34.8,30.24,ENE,68,6.7,11.4,70,0.00,,,0.00,WUHU216HW,2013-05-02 13:20:00,
2013-05-02 08:25:00,44.3,35.5,30.24,ENE,68,3.6,11.0,71,0.00,,,0.00,WUHU216HW,2013-05-02 13:25:00,
2013-05-02 08:30:00,44.3,35.1,30.25,NNE,23,5.8,9.2,70,0.00,,,0.00,WUHU216HW,2013-05-02 13:30:00,
2013-05-02 08:35:00,44.1,35.0,30.25,North,0,7.4,13.0,70,0.00,,,0.00,WUHU216HW,2013-05-02 13:35:00,
2013-05-02 08:40:00,44.5,35.7,30.25,ENE,68,3.6,13.0,71,0.00,,,0.00,WUHU216HW,2013-05-02 13:40:00,
2013-05-02 08:45:00,45.0,35.8,30.25,East,90,6.5,11.2,70,0.00,,,0.00,WUHU216HW,2013-05-02 13:45:00,
2013-05-02 08:50:00,45.7,36.2,30.25,WNW,293,2.5,9.8,69,0.00,,,0.00,WUHU216HW,2013-05-02 13:50:00,
2013-05-02 08:55:00,45.7,35.7,30.25,NNW,338,2.5,10.7,68,0.00,,,0.00,WUHU216HW,2013-05-02 13:55:00,
2013-05-02 09:00:00,45.7,35.7,30.25,NNW,338,10.5,10.7,68,0.00,,,0.00,WUHU216HW,2013-05-02 14:00:00,
2013-05-02 09:05:00,45.4,35.8,30.26,ENE,68,3.4,11.6,69,0.00,,,0.00,WUHU216HW,2013-05-02 14:05:00,
2013-05-02 09:10:00,45.5,36.0,30.27,North,0,8.3,11.6,69,0.00,,,0.00,WUHU216HW,2013-05-02 14:10:00,
2013-05-02 09:15:00,45.9,35.9,30.27,NNW,338,8.3,10.5,68,0.00,,,0.00,WUHU216HW,2013-05-02 14:15:00,
2013-05-02 09:20:00,46.1,35.7,30.27,NW,315,9.8,10.5,67,0.00,,,0.00,WUHU216HW,2013-05-02 14:20:00,
2013-05-02 09:25:00,46.4,36.5,30.27,NE,45,4.9,11.9,68,0.00,,,0.00,WUHU216HW,2013-05-02 14:25:00,
2013-05-02 09:30:00,47.0,36.2,30.26,NNE,23,7.6,11.9,66,0.00,,,0.00,WUHU216HW,2013-05-02 14:30:00,
2013-05-02 09:35:00,47.5,36.3,30.26,SE,135,2.5,11.4,65,0.00,,,0.00,WUHU216HW,2013-05-02 14:35:00,
2013-05-02 09:40:00,48.2,36.6,30.26,ENE,68,2.9,11.4,64,0.00,,,0.00,WUHU216HW,2013-05-02 14:40:00,
2013-05-02 09:45:00,47.9,35.9,30.25,NNW,338,7.8,8.9,63,0.00,,,0.00,WUHU216HW,2013-05-02 14:45:00,
2013-05-02 09:50:00,48.4,36.4,30.25,North,0,10.1,10.1,63,0.00,,,0.00,WUHU216HW,2013-05-02 14:50:00,
2013-05-02 09:55:00,48.2,36.3,30.25,North,0,7.2,11.0,63,0.00,,,0.00,WUHU216HW,2013-05-02 14:55:00,
2013-05-02 10:00:00,48.2,36.3,30.24,North,0,4.3,11.2,63,0.00,,,0.00,WUHU216HW,2013-05-02 15:00:00,
2013-05-02 10:05:00,49.0,37.3,30.24,NW,315,4.3,11.2,64,0.00,,,0.00,WUHU216HW,2013-05-02 15:05:00,
2013-05-02 10:10:00,49.1,37.1,30.24,NNW,338,4.3,9.8,63,0.00,,,0.00,WUHU216HW,2013-05-02 15:10:00,
2013-05-02 10:15:00,49.3,37.3,30.23,North,0,7.4,10.5,63,0.00,,,0.00,WUHU216HW,2013-05-02 15:15:00,
2013-05-02 10:20:00,49.7,37.5,30.23,SE,135,4.7,10.5,63,0.00,,,0.00,WUHU216HW,2013-05-02 15:20:00,
2013-05-02 10:25:00,50.0,37.5,30.23,SSW,203,2.5,9.8,62,0.00,,,0.00,WUHU216HW,2013-05-02 15:25:00,
2013-05-02 10:31:00,50.6,38.0,30.24,North,0,4.0,12.5,62,0.00,,,0.00,WUHU216HW,2013-05-02 15:31:00,
2013-05-02 10:36:00,50.6,37.6,30.25,NW,315,2.2,12.5,61,0.00,,,0.00,WUHU216HW,2013-05-02 15:36:00,
2013-05-02 10:41:00,51.3,38.3,30.25,ESE,113,6.0,9.2,61,0.00,,,0.00,WUHU216HW,2013-05-02 15:41:00,
2013-05-02 10:46:00,50.9,37.5,30.24,NNE,23,7.4,8.3,60,0.00,,,0.00,WUHU216HW,2013-05-02 15:46:00,
2013-05-02 10:51:00,51.8,38.8,30.24,North,0,1.8,8.3,61,0.00,,,0.00,WUHU216HW,2013-05-02 15:51:00,
2013-05-02 10:56:00,52.9,38.5,30.25,SW,225,3.1,6.3,58,0.00,,,0.00,WUHU216HW,2013-05-02 15:56:00,
2013-05-02 11:01:00,52.6,38.2,30.25,North,0,6.7,6.7,58,0.00,,,0.00,WUHU216HW,2013-05-02 16:01:00,
2013-05-02 11:06:00,52.2,38.7,30.24,North,0,4.5,7.2,60,0.00,,,0.00,WUHU216HW,2013-05-02 16:06:00,
2013-05-02 11:11:00,52.2,38.7,30.24,East,90,3.1,7.2,60,0.00,,,0.00,WUHU216HW,2013-05-02 16:11:00,
2013-05-02 11:16:00,52.4,38.4,30.24,North,0,9.4,10.5,59,0.00,,,0.00,WUHU216HW,2013-05-02 16:16:00,
2013-05-02 11:21:00,52.2,38.7,30.24,ENE,68,3.6,10.5,60,0.00,,,0.00,WUHU216HW,2013-05-02 16:21:00,
2013-05-02 11:26:00,52.0,38.1,30.24,North,0,4.7,11.2,59,0.00,,,0.00,WUHU216HW,2013-05-02 16:26:00,
2013-05-02 11:31:00,51.5,38.0,30.24,SSW,203,4.0,11.2,60,0.00,,,0.00,WUHU216HW,2013-05-02 16:31:00,
2013-05-02 11:36:00,51.3,38.3,30.23,North,0,7.2,10.5,61,0.00,,,0.00,WUHU216HW,2013-05-02 16:36:00,
2013-05-02 11:41:00,51.5,38.9,30.22,NE,45,5.4,8.9,62,0.00,,,0.00,WUHU216HW,2013-05-02 16:41:00,
2013-05-02 11:46:00,52.6,39.1,30.22,NE,45,7.6,8.9,60,0.00,,,0.00,WUHU216HW,2013-05-02 16:46:00,
2013-05-02 11:51:00,53.3,39.8,30.22,SE,135,2.9,7.6,60,0.00,,,0.00,WUHU216HW,2013-05-02 16:51:00,
2013-05-02 11:56:00,53.3,39.3,30.22,NE,45,4.0,7.6,59,0.00,,,0.00,WUHU216HW,2013-05-02 16:56:00,
2013-05-02 12:01:00,53.3,38.9,30.22,North,0,5.6,8.5,58,0.00,,,0.00,WUHU216HW,2013-05-02 17:01:00,
2013-05-02 12:06:00,52.7,38.8,30.22,North,0,6.9,9.4,59,0.00,,,0.00,WUHU216HW,2013-05-02 17:06:00,
2013-05-02 12:11:00,51.8,38.8,30.23,North,0,6.9,9.6,61,0.00,,,0.00,WUHU216HW,2013-05-02 17:11:00,
2013-05-02 12:16:00,51.5,38.4,30.23,NE,45,6.9,12.1,61,0.00,,,0.00,WUHU216HW,2013-05-02 17:16:00,
2013-05-02 12:21:00,51.5,38.9,30.23,SE,135,3.1,12.1,62,0.00,,,0.00,WUHU216HW,2013-05-02 17:21:00,
2013-05-02 12:26:00,51.8,39.2,30.22,WSW,248,1.1,6.9,62,0.00,,,0.00,WUHU216HW,2013-05-02 17:26:00,
2013-05-02 12:31:00,51.5,38.4,30.24,SSW,203,1.1,6.9,61,0.00,,,0.00,WUHU216HW,2013-05-02 17:31:00,
2013-05-02 12:36:00,51.5,38.9,30.25,ENE,68,1.8,5.1,62,0.00,,,0.00,WUHU216HW,2013-05-02 17:36:00,
2013-05-02 12:41:00,50.8,39.4,30.23,North,0,5.4,5.8,65,0.00,,,0.00,WUHU216HW,2013-05-02 17:41:00,
2013-05-02 12:46:00,50.4,39.9,30.21,North,0,5.4,7.2,67,0.00,,,0.00,WUHU216HW,2013-05-02 17:46:00,
2013-05-02 12:51:00,51.3,40.7,30.21,SSE,158,1.8,7.2,67,0.00,,,0.00,WUHU216HW,2013-05-02 17:51:00,
2013-05-02 12:56:00,53.5,41.9,30.20,North,0,6.9,6.9,65,0.00,,,0.00,WUHU216HW,2013-05-02 17:56:00,
2013-05-02 13:01:00,54.7,41.1,30.19,NNW,338,4.3,11.0,60,0.00,,,0.00,WUHU216HW,2013-05-02 18:01:00,
2013-05-02 13:06:00,55.8,40.7,30.19,ENE,68,10.3,11.0,57,0.00,,,0.00,WUHU216HW,2013-05-02 18:06:00,
2013-05-02 13:11:00,56.3,42.7,30.20,East,90,4.3,10.3,60,0.00,,,0.00,WUHU216HW,2013-05-02 18:11:00,
2013-05-02 13:16:00,57.6,42.0,30.20,ESE,113,3.4,10.3,56,0.00,,,0.00,WUHU216HW,2013-05-02 18:16:00,
2013-05-02 13:21:00,56.9,41.3,30.19,NE,45,10.5,10.5,56,0.00,,,0.00,WUHU216HW,2013-05-02 18:21:00,
2013-05-02 13:26:00,55.3,40.2,30.19,NNW,338,4.7,10.5,57,0.00,,,0.00,WUHU216HW,2013-05-02 18:26:00,
2013-05-02 13:31:00,54.4,40.8,30.20,ENE,68,4.5,10.5,60,0.00,,,0.00,WUHU216HW,2013-05-02 18:31:00,
2013-05-02 13:36:00,54.5,41.0,30.20,NNW,338,6.9,10.7,60,0.00,,,0.00,WUHU216HW,2013-05-02 18:36:00,
2013-05-02 13:41:00,55.1,41.4,30.20,NE,45,3.4,10.7,60,0.00,,,0.00,WUHU216HW,2013-05-02 18:41:00,
2013-05-02 13:46:00,56.0,42.3,30.21,WNW,293,1.1,6.9,60,0.00,,,0.00,WUHU216HW,2013-05-02 18:46:00,
2013-05-02 13:51:00,56.9,42.3,30.21,SE,135,2.5,4.7,58,0.00,,,0.00,WUHU216HW,2013-05-02 18:51:00,
2013-05-02 13:56:00,57.6,42.0,30.22,ENE,68,2.0,4.3,56,0.00,,,0.00,WUHU216HW,2013-05-02 18:56:00,
2013-05-02 14:01:00,57.4,42.8,30.21,ESE,113,2.0,4.3,58,0.00,,,0.00,WUHU216HW,2013-05-02 19:01:00,
2013-05-02 14:06:00,57.8,42.2,30.21,WSW,248,1.8,5.6,56,0.00,,,0.00,WUHU216HW,2013-05-02 19:06:00,
2013-05-02 14:11:00,56.5,41.4,30.21,SW,225,2.5,5.6,57,0.00,,,0.00,WUHU216HW,2013-05-02 19:11:00,
2013-05-02 14:16:00,55.8,41.2,30.21,NW,315,1.3,5.1,58,0.00,,,0.00,WUHU216HW,2013-05-02 19:16:00,
2013-05-02 14:21:00,56.7,43.4,30.20,NNW,338,1.8,5.1,61,0.00,,,0.00,WUHU216HW,2013-05-02 19:21:00,
2013-05-02 14:26:00,57.4,42.8,30.20,SW,225,2.9,8.3,58,0.00,,,0.00,WUHU216HW,2013-05-02 19:26:00,
2013-05-02 14:31:00,57.8,43.1,30.19,North,0,3.8,8.3,58,0.00,,,0.00,WUHU216HW,2013-05-02 19:31:00,
2013-05-02 14:36:00,58.0,42.3,30.19,NNW,338,4.9,7.6,56,0.00,,,0.00,WUHU216HW,2013-05-02 19:36:00,
2013-05-02 14:41:00,58.3,42.2,30.18,NW,315,5.4,7.6,55,0.00,,,0.00,WUHU216HW,2013-05-02 19:41:00,
2013-05-02 14:46:00,57.8,42.2,30.19,North,0,5.1,8.7,56,0.00,,,0.00,WUHU216HW,2013-05-02 19:46:00,
2013-05-02 14:51:00,56.5,41.0,30.19,NNW,338,3.8,11.4,56,0.00,,,0.00,WUHU216HW,2013-05-02 19:51:00,
2013-05-02 14:56:00,56.0,40.4,30.19,NNE,23,6.3,11.4,56,0.00,,,0.00,WUHU216HW,2013-05-02 19:56:00,
2013-05-02 15:01:00,55.8,40.7,30.19,NNE,23,7.6,9.4,57,0.00,,,0.00,WUHU216HW,2013-05-02 20:01:00,
2013-05-02 15:06:00,54.9,39.9,30.20,NNE,23,3.8,8.3,57,0.00,,,0.00,WUHU216HW,2013-05-02 20:06:00,
2013-05-02 15:11:00,54.2,40.1,30.21,NNE,23,4.3,8.3,59,0.00,,,0.00,WUHU216HW,2013-05-02 20:11:00,
2013-05-02 15:16:00,54.4,40.8,30.21,North,0,2.5,7.6,60,0.00,,,0.00,WUHU216HW,2013-05-02 20:16:00,
2013-05-02 15:21:00,53.6,40.1,30.20,North,0,5.6,7.8,60,0.00,,,0.00,WUHU216HW,2013-05-02 20:21:00,
2013-05-02 15:26:00,53.6,40.1,30.19,North,0,5.4,7.8,60,0.00,,,0.00,WUHU216HW,2013-05-02 20:26:00,
2013-05-02 15:31:00,53.6,40.5,30.18,North,0,9.4,11.0,61,0.00,,,0.00,WUHU216HW,2013-05-02 20:31:00,
2013-05-02 15:36:00,53.8,40.7,30.18,North,0,6.9,11.0,61,0.00,,,0.00,WUHU216HW,2013-05-02 20:36:00,
2013-05-02 15:41:00,53.8,40.3,30.18,NNE,23,5.1,10.5,60,0.00,,,0.00,WUHU216HW,2013-05-02 20:41:00,
2013-05-02 15:46:00,53.6,40.5,30.17,NNW,338,7.6,9.8,61,0.00,,,0.00,WUHU216HW,2013-05-02 20:46:00,
2013-05-02 15:51:00,53.3,40.1,30.17,North,0,10.5,12.5,61,0.00,,,0.00,WUHU216HW,2013-05-02 20:51:00,
2013-05-02 15:56:00,54.0,40.5,30.16,NNE,23,10.5,12.5,60,0.00,,,0.00,WUHU216HW,2013-05-02 20:56:00,
2013-05-02 16:01:00,54.4,40.3,30.16,North,0,8.5,12.3,59,0.00,,,0.00,WUHU216HW,2013-05-02 21:01:00,
2013-05-02 16:06:00,55.1,40.5,30.17,NNE,23,10.7,14.5,58,0.00,,,0.00,WUHU216HW,2013-05-02 21:06:00,
2013-05-02 16:11:00,55.4,39.9,30.17,NW,315,10.3,14.5,56,0.00,,,0.00,WUHU216HW,2013-05-02 21:11:00,
2013-05-02 16:16:00,53.6,39.3,30.17,North,0,10.5,11.4,58,0.00,,,0.00,WUHU216HW,2013-05-02 21:16:00,
2013-05-02 16:21:00,52.2,39.2,30.18,North,0,9.2,11.2,61,0.00,,,0.00,WUHU216HW,2013-05-02 21:21:00,
2013-05-02 16:26:00,51.8,39.2,30.18,North,0,6.7,11.4,62,0.00,,,0.00,WUHU216HW,2013-05-02 21:26:00,
2013-05-02 16:31:00,51.1,38.9,30.18,NNW,338,7.4,11.4,63,0.00,,,0.00,WUHU216HW,2013-05-02 21:31:00,
2013-05-02 16:36:00,50.8,38.6,30.18,North,0,5.8,11.2,63,0.00,,,0.00,WUHU216HW,2013-05-02 21:36:00,
2013-05-02 16:41:00,50.0,38.4,30.18,NNW,338,5.8,11.2,64,0.00,,,0.00,WUHU216HW,2013-05-02 21:41:00,
2013-05-02 16:46:00,49.7,38.0,30.19,NNE,23,11.4,11.4,64,0.00,,,0.00,WUHU216HW,2013-05-02 21:46:00,
2013-05-02 16:51:00,48.6,37.4,30.19,North,0,7.8,11.4,65,0.00,,,0.00,WUHU216HW,2013-05-02 21:51:00,
2013-05-02 16:56:00,48.1,36.8,30.20,NNE,23,10.7,10.7,65,0.00,,,0.00,WUHU216HW,2013-05-02 21:56:00,
2013-05-02 17:01:00,47.5,36.7,30.21,North,0,6.9,10.7,66,0.00,,,0.00,WUHU216HW,2013-05-02 22:01:00,
2013-05-02 17:06:00,47.2,36.7,30.20,North,0,7.6,12.5,67,0.00,,,0.00,WUHU216HW,2013-05-02 22:06:00,
2013-05-02 17:11:00,46.8,36.8,30.18,North,0,11.4,12.5,68,0.00,,,0.00,WUHU216HW,2013-05-02 22:11:00,
2013-05-02 17:16:00,46.1,37.6,30.18,North,0,5.4,12.3,72,0.00,,,0.00,WUHU216HW,2013-05-02 22:16:00,
2013-05-02 17:21:00,45.7,38.3,30.18,North,0,9.2,12.3,75,0.01,,,0.01,WUHU216HW,2013-05-02 22:21:00,
2013-05-02 17:26:00,45.0,37.9,30.17,NNW,338,9.8,15.0,76,0.02,,,0.02,WUHU216HW,2013-05-02 22:26:00,
2013-05-02 17:31:00,44.6,37.9,30.18,North,0,3.4,15.0,77,0.03,,,0.02,WUHU216HW,2013-05-02 22:31:00,
2013-05-02 17:36:00,44.5,38.7,30.17,NNW,338,11.2,12.1,80,0.03,,,0.03,WUHU216HW,2013-05-02 22:36:00,
2013-05-02 17:41:00,43.9,38.4,30.17,North,0,6.3,13.9,81,0.03,,,0.03,WUHU216HW,2013-05-02 22:41:00,
2013-05-02 17:46:00,43.6,38.4,30.18,NNW,338,8.5,13.9,82,0.04,,,0.04,WUHU216HW,2013-05-02 22:46:00,
2013-05-02 17:51:00,43.6,38.4,30.19,North,0,7.6,12.1,82,0.04,,,0.04,WUHU216HW,2013-05-02 22:51:00,
2013-05-02 17:56:00,43.2,38.3,30.19,North,0,7.6,12.1,83,0.04,,,0.04,WUHU216HW,2013-05-02 22:56:00,
2013-05-02 18:01:00,43.0,38.2,30.20,North,0,10.1,10.5,83,0.04,,,0.04,WUHU216HW,2013-05-02 23:01:00,
2013-05-02 18:06:00,43.0,38.2,30.19,North,0,9.2,11.9,83,0.04,,,0.04,WUHU216HW,2013-05-02 23:06:00,
2013-05-02 18:11:00,43.0,38.2,30.20,North,0,10.1,13.0,83,0.04,,,0.04,WUHU216HW,2013-05-02 23:11:00,
2013-05-02 18:16:00,43.0,38.2,30.20,North,0,8.7,13.0,83,0.03,,,0.04,WUHU216HW,2013-05-02 23:16:00,
2013-05-02 18:21:00,42.8,37.7,30.20,North,0,8.9,12.8,82,0.03,,,0.04,WUHU216HW,2013-05-02 23:21:00,
2013-05-02 18:26:00,42.7,37.5,30.20,North,0,8.3,13.2,82,0.02,,,0.04,WUHU216HW,2013-05-02 23:26:00,
2013-05-02 18:31:00,42.3,37.2,30.19,North,0,10.1,13.9,82,0.01,,,0.04,WUHU216HW,2013-05-02 23:31:00,
2013-05-02 18:36:00,42.1,36.6,30.20,North,0,9.4,13.9,81,0.01,,,0.04,WUHU216HW,2013-05-02 23:36:00,
2013-05-02 18:41:00,41.9,36.8,30.20,NNE,23,7.6,12.3,82,0.01,,,0.04,WUHU216HW,2013-05-02 23:41:00,
2013-05-02 18:46:00,41.8,36.6,30.20,NNW,338,9.8,11.4,82,0.00,,,0.04,WUHU216HW,2013-05-02 23:46:00,
2013-05-02 18:51:00,41.4,36.5,30.21,North,0,9.2,14.1,83,0.00,,,0.04,WUHU216HW,2013-05-02 23:51:00,
2013-05-02 18:56:00,41.4,36.3,30.22,North,0,8.3,14.1,82,0.00,,,0.04,WUHU216HW,2013-05-02 23:56:00,
2013-05-02 19:01:00,41.2,36.1,30.22,North,0,6.5,13.0,82,0.00,,,0.04,WUHU216HW,2013-05-03 00:01:00,
2013-05-02 19:06:00,41.0,36.2,30.22,North,0,8.9,13.0,83,0.00,,,0.04,WUHU216HW,2013-05-03 00:06:00,
2013-05-02 19:11:00,40.9,36.0,30.22,North,0,6.7,9.8,83,0.00,,,0.04,WUHU216HW,2013-05-03 00:11:00,
2013-05-02 19:16:00,40.9,36.4,30.22,NNW,338,6.5,12.5,84,0.00,,,0.04,WUHU216HW,2013-05-03 00:16:00,
2013-05-02 19:21:00,40.7,36.2,30.21,NNW,338,4.5,12.5,84,0.00,,,0.04,WUHU216HW,2013-05-03 00:21:00,
2013-05-02 19:26:00,40.7,36.5,30.20,North,0,4.7,10.5,85,0.01,,,0.05,WUHU216HW,2013-05-03 00:26:00,
2013-05-02 19:31:00,40.5,36.3,30.20,NNE,23,2.9,11.6,85,0.01,,,0.05,WUHU216HW,2013-05-03 00:31:00,
2013-05-02 19:36:00,40.5,36.3,30.19,NNE,23,6.7,12.1,85,0.01,,,0.05,WUHU216HW,2013-05-03 00:36:00,
2013-05-02 19:41:00,40.3,36.1,30.18,ENE,68,8.5,13.9,85,0.02,,,0.06,WUHU216HW,2013-05-03 00:41:00,
2013-05-02 19:46:00,40.1,36.3,30.19,NNE,23,8.7,13.9,86,0.02,,,0.06,WUHU216HW,2013-05-03 00:46:00,
2013-05-02 19:51:00,40.0,36.1,30.19,NNE,23,11.4,13.0,86,0.03,,,0.07,WUHU216HW,2013-05-03 00:51:00,
2013-05-02 19:56:00,40.0,36.1,30.19,North,0,3.8,13.0,86,0.04,,,0.08,WUHU216HW,2013-05-03 00:56:00,
2013-05-02 20:01:00,40.0,36.4,30.20,North,0,10.1,11.9,87,0.04,,,0.08,WUHU216HW,2013-05-03 01:01:00,
2013-05-02 20:06:00,40.0,36.4,30.20,North,0,7.6,11.9,87,0.04,,,0.08,WUHU216HW,2013-05-03 01:06:00,
2013-05-02 20:11:00,40.0,36.1,30.20,NNW,338,9.8,11.4,86,0.04,,,0.08,WUHU216HW,2013-05-03 01:11:00,
2013-05-02 20:16:00,40.0,36.1,30.20,NNE,23,7.8,11.6,86,0.04,,,0.08,WUHU216HW,2013-05-03 01:16:00,
2013-05-02 20:21:00,40.0,36.4,30.19,North,0,5.4,11.6,87,0.03,,,0.08,WUHU216HW,2013-05-03 01:21:00,
2013-05-02 20:26:00,40.0,36.4,30.19,North,0,5.6,9.8,87,0.03,,,0.08,WUHU216HW,2013-05-03 01:26:00,
2013-05-02 20:31:00,40.0,36.4,30.19,NNE,23,5.1,12.1,87,0.03,,,0.08,WUHU216HW,2013-05-03 01:31:00,
2013-05-02 20:36:00,40.0,36.4,30.20,North,0,8.5,12.1,87,0.02,,,0.08,WUHU216HW,2013-05-03 01:36:00,
2013-05-02 20:41:00,40.0,36.1,30.21,North,0,4.0,10.3,86,0.02,,,0.08,WUHU216HW,2013-05-03 01:41:00,
2013-05-02 20:46:00,40.0,36.1,30.21,NNW,338,6.0,9.8,86,0.01,,,0.08,WUHU216HW,2013-05-03 01:46:00,
2013-05-02 20:51:00,40.0,36.1,30.21,North,0,6.9,8.5,86,0.01,,,0.08,WUHU216HW,2013-05-03 01:51:00,
2013-05-02 20:56:00,40.0,36.1,30.22,NNE,23,6.3,9.4,86,0.00,,,0.08,WUHU216HW,2013-05-03 01:56:00,
2013-05-02 21:01:00,40.0,36.1,30.22,NNW,338,8.7,9.4,86,0.00,,,0.08,WUHU216HW,2013-05-03 02:01:00,
2013-05-02 21:06:00,40.0,36.1,30.22,North,0,6.7,10.1,86,0.00,,,0.08,WUHU216HW,2013-05-03 02:06:00,
2013-05-02 21:11:00,40.0,36.1,30.22,North,0,5.1,10.1,86,0.00,,,0.08,WUHU216HW,2013-05-03 02:11:00,
2013-05-02 21:16:00,40.0,35.8,30.22,NNE,23,2.7,8.9,85,0.00,,,0.08,WUHU216HW,2013-05-03 02:16:00,
2013-05-02 21:21:00,40.0,36.1,30.22,NNW,338,5.4,8.5,86,0.00,,,0.08,WUHU216HW,2013-05-03 02:21:00,
2013-05-02 21:26:00,40.0,36.1,30.22,North,0,5.4,8.7,86,0.00,,,0.08,WUHU216HW,2013-05-03 02:26:00,
2013-05-02 21:31:00,40.0,36.1,30.21,NNE,23,6.3,11.4,86,0.00,,,0.08,WUHU216HW,2013-05-03 02:31:00,
2013-05-02 21:36:00,40.0,35.8,30.21,NNW,338,6.0,11.4,85,0.00,,,0.08,WUHU216HW,2013-05-03 02:36:00,
2013-05-02 21:41:00,40.0,36.1,30.21,NW,315,7.6,10.7,86,0.00,,,0.08,WUHU216HW,2013-05-03 02:41:00,
2013-05-02 21:46:00,40.0,36.1,30.21,NNW,338,4.7,9.4,86,0.00,,,0.08,WUHU216HW,2013-05-03 02:46:00,
2013-05-02 21:51:00,39.8,35.9,30.21,North,0,4.9,10.5,86,0.00,,,0.08,WUHU216HW,2013-05-03 02:51:00,
2013-05-02 21:56:00,39.6,35.7,30.21,North,0,3.6,10.5,86,0.00,,,0.08,WUHU216HW,2013-05-03 02:56:00,
2013-05-02 22:01:00,39.6,35.7,30.20,North,0,11.4,11.4,86,0.00,,,0.08,WUHU216HW,2013-05-03 03:01:00,
2013-05-02 22:06:00,39.4,35.6,30.20,North,0,5.6,11.4,86,0.00,,,0.08,WUHU216HW,2013-05-03 03:06:00,
2013-05-02 22:11:00,39.2,35.6,30.21,North,0,5.1,9.6,87,0.00,,,0.08,WUHU216HW,2013-05-03 03:11:00,
2013-05-02 22:16:00,39.2,35.6,30.20,North,0,9.8,11.9,87,0.00,,,0.08,WUHU216HW,2013-05-03 03:16:00,
2013-05-02 22:21:00,38.9,35.3,30.20,North,0,10.3,11.9,87,0.00,,,0.08,WUHU216HW,2013-05-03 03:21:00,
2013-05-02 22:26:00,38.7,35.1,30.20,North,0,7.2,11.0,87,0.00,,,0.08,WUHU216HW,2013-05-03 03:26:00,
2013-05-02 22:31:00,38.7,35.1,30.20,North,0,9.6,10.5,87,0.00,,,0.08,WUHU216HW,2013-05-03 03:31:00,
2013-05-02 22:36:00,38.5,34.9,30.20,North,0,5.6,9.6,87,0.00,,,0.08,WUHU216HW,2013-05-03 03:36:00,
2013-05-02 22:41:00,38.5,34.9,30.20,North,0,5.4,9.6,87,0.01,,,0.09,WUHU216HW,2013-05-03 03:41:00,
2013-05-02 22:46:00,38.3,35.1,30.20,North,0,7.6,9.8,88,0.04,,,0.12,WUHU216HW,2013-05-03 03:46:00,
2013-05-02 22:51:00,38.3,35.1,30.20,NNW,338,2.7,9.8,88,0.04,,,0.12,WUHU216HW,2013-05-03 03:51:00,
2013-05-02 22:56:00,38.2,34.9,30.20,NNE,23,4.9,8.5,88,0.05,,,0.13,WUHU216HW,2013-05-03 03:56:00,
2013-05-02 23:01:00,38.2,35.2,30.20,NNE,23,8.1,9.6,89,0.05,,,0.13,WUHU216HW,2013-05-03 04:01:00,
2013-05-02 23:02:00,38.2,35.2,30.20,NNE,23,7.8,9.6,89,0.05,,,0.13,WUHU216HW,2013-05-03 04:02:00,
2013-05-02 23:07:00,38.3,35.1,30.20,North,0,6.5,9.8,88,0.05,,,0.13,WUHU216HW,2013-05-03 04:07:00,
2013-05-02 23:12:00,38.3,35.1,30.20,North,0,6.9,9.8,88,0.05,,,0.13,WUHU216HW,2013-05-03 04:12:00,
2013-05-02 23:17:00,38.3,35.1,30.20,NE,45,7.6,9.2,88,0.05,,,0.13,WUHU216HW,2013-05-03 04:17:00,
2013-05-02 23:22:00,38.2,34.6,30.20,NNW,338,7.2,9.2,87,0.05,,,0.13,WUHU216HW,2013-05-03 04:22:00,
2013-05-02 23:27:00,38.2,34.6,30.20,North,0,8.5,11.4,87,0.05,,,0.13,WUHU216HW,2013-05-03 04:27:00,
2013-05-02 23:32:00,38.2,34.6,30.19,NNW,338,5.8,11.4,87,0.05,,,0.13,WUHU216HW,2013-05-03 04:32:00,
2013-05-02 23:37:00,38.0,34.4,30.19,NNE,23,5.6,8.9,87,0.05,,,0.13,WUHU216HW,2013-05-03 04:37:00,
2013-05-02 23:42:00,38.0,34.4,30.19,NNW,338,9.8,9.8,87,0.01,,,0.13,WUHU216HW,2013-05-03 04:42:00,
2013-05-02 23:47:00,38.0,34.4,30.18,North,0,8.7,9.8,87,0.01,,,0.13,WUHU216HW,2013-05-03 04:47:00,
2013-05-02 23:52:00,38.0,34.8,30.18,NNE,23,4.0,9.8,88,0.00,,,0.13,WUHU216HW,2013-05-03 04:52:00,
2013-05-02 23:57:00,38.0,34.8,30.18,North,0,5.6,8.7,88,0.00,,,0.13,WUHU216HW,2013-05-03 04:57:00,